Terminal Aerodrome Forecast
Issued by NWS Sioux Falls, SD

Home | Current Version | Previous Version | Graphics & Text | Print | Product List | Glossary Off
Versions: 1 2 3 4 5 6 7 8 9 10 11 12 13

000
FTUS43 KFSD 082320
TAFSUX
TAF
KSUX 082320Z 0900/0924 27008KT P6SM BKN200
     FM090400 32012G18KT P6SM SCT200
     FM090800 35013G19KT P6SM SCT022 BKN200
     FM091400 33013KT P6SM SCT025
     FM091800 32012KT P6SM FEW250
     FM092300 24005KT P6SM FEW200=

USA.gov is the U.S. government's official web portal to all federal, state and local government web resources and services.